YFC83 EHLE-EHLE

Flight info

Callsign YFC83
Flight time 0h 5m
Altitude 6000
Route CIRCUITS
Aircraft DA42/L-SBDGRY/S

Departure

Time 2026-05-06 12:56
Airport Lelystad Airport (EHLE)

Arrival

Time 2026-05-06 13:01
Airport Lelystad Airport (EHLE)
Time Latitude Longitude Altitude Speed Heading
2026-05-06 12:41 52.45020 5.51395 -11 ft 0 kts 213°
2026-05-06 12:49 52.44991 5.51345 -11 ft 14 kts 239°
2026-05-06 12:49 52.45004 5.51306 -11 ft 0 kts 311°
2026-05-06 12:51 52.45004 5.51305 -11 ft 0 kts 312°
2026-05-06 12:51 52.45008 5.51271 -11 ft 7 kts 228°
2026-05-06 12:51 52.44952 5.51171 -11 ft 16 kts 224°
2026-05-06 12:52 52.44865 5.51033 -11 ft 18 kts 227°
2026-05-06 12:52 52.44767 5.50858 -11 ft 23 kts 227°
2026-05-06 12:52 52.44659 5.50666 -11 ft 19 kts 226°
2026-05-06 12:52 52.44584 5.50528 -11 ft 18 kts 232°
2026-05-06 12:53 52.44605 5.50395 -10 ft 2 kts 320°
2026-05-06 12:54 52.44615 5.50381 -10 ft 7 kts 318°
2026-05-06 12:55 52.44673 5.50313 -9 ft 12 kts
2026-05-06 12:55 52.44738 5.50413 -9 ft 19 kts 50°
2026-05-06 12:55 52.44881 5.50666 -10 ft 55 kts 50°
2026-05-06 12:55 52.45173 5.51199 246 ft 64 kts 46°
2026-05-06 12:56 52.45483 5.51745 488 ft 70 kts 44°
2026-05-06 12:56 52.45796 5.52288 886 ft 61 kts 45°
2026-05-06 12:56 52.46108 5.52843 1094 ft 73 kts 47°
2026-05-06 12:56 52.46477 5.53509 1238 ft 85 kts 45°
2026-05-06 12:57 52.47123 5.53609 1259 ft 116 kts 344°
2026-05-06 12:57 52.47770 5.52719 1348 ft 131 kts 309°
2026-05-06 12:57 52.47783 5.51169 1354 ft 152 kts 245°
2026-05-06 12:57 52.47108 5.49843 1414 ft 151 kts 226°
2026-05-06 12:58 52.46353 5.48635 1468 ft 151 kts 225°
2026-05-06 12:58 52.45595 5.47446 1481 ft 152 kts 222°
2026-05-06 12:58 52.44853 5.46278 1530 ft 132 kts 223°
2026-05-06 12:58 52.44267 5.45325 1420 ft 114 kts 220°
2026-05-06 12:59 52.43604 5.45157 1315 ft 88 kts 142°
2026-05-06 12:59 52.43086 5.45626 1141 ft 80 kts 118°
2026-05-06 12:59 52.42978 5.46468 807 ft 79 kts 74°
2026-05-06 12:59 52.43182 5.47253 640 ft 69 kts 57°
2026-05-06 13:00 52.43441 5.47853 421 ft 59 kts 50°
2026-05-06 13:00 52.43677 5.48383 319 ft 56 kts 48°
2026-05-06 13:00 52.43906 5.48859 213 ft 52 kts 48°
2026-05-06 13:00 52.44153 5.49330 123 ft 57 kts 49°
2026-05-06 13:01 52.44415 5.49804 60 ft 54 kts 51°
2026-05-06 13:01 52.44656 5.50260 3 ft 52 kts 51°
2026-05-06 13:01 52.44888 5.50670 -10 ft 44 kts 48°
2026-05-06 13:01 52.45063 5.50996 -10 ft 37 kts 50°
2026-05-06 13:02 52.45325 5.51450 131 ft 64 kts 46°
2026-05-06 13:02 52.45635 5.51967 473 ft 59 kts 45°
2026-05-06 13:02 52.45939 5.52408 823 ft 57 kts 41°
2026-05-06 13:02 52.46274 5.52845 1042 ft 67 kts 40°
2026-05-06 13:03 52.46709 5.53278 1150 ft 91 kts 11°
2026-05-06 13:03 52.47263 5.52508 1197 ft 130 kts 297°
2026-05-06 13:03 52.47093 5.51050 1259 ft 138 kts 228°
2026-05-06 13:03 52.46428 5.50001 1340 ft 124 kts 224°
2026-05-06 13:04 52.45815 5.49130 1397 ft 110 kts 219°
2026-05-06 13:04 52.45155 5.48285 1391 ft 122 kts 217°
2026-05-06 13:04 52.44508 5.47369 1271 ft 125 kts 220°
2026-05-06 13:04 52.43921 5.47228 1162 ft 79 kts 96°
2026-05-06 13:05 52.43884 5.48281 386 ft 106 kts 75°
2026-05-06 13:05 52.44154 5.49259 193 ft 86 kts 56°
2026-05-06 13:05 52.44498 5.49964 69 ft 71 kts 51°
2026-05-06 13:05 52.44789 5.50489 2 ft 54 kts 52°
2026-05-06 13:06 52.45011 5.50907 -12 ft 41 kts 47°
2026-05-06 13:06 52.45149 5.51148 -10 ft 20 kts 55°
2026-05-06 13:06 52.45237 5.51323 -9 ft 20 kts 48°
2026-05-06 13:06 52.45324 5.51477 -9 ft 15 kts 86°
2026-05-06 13:07 52.45260 5.51593 -10 ft 0 kts 137°
2026-05-06 13:07 52.45240 5.51626 -11 ft 8 kts 131°
2026-05-06 13:07 52.45248 5.51715 -11 ft 10 kts 47°
2026-05-06 13:08 52.45299 5.51809 -11 ft 12 kts 48°
2026-05-06 13:08 52.45338 5.51876 -11 ft 4 kts 51°
2026-05-06 13:08 52.45364 5.51923 -11 ft 12 kts 46°
2026-05-06 13:08 52.45495 5.52157 -11 ft 33 kts 48°
2026-05-06 13:09 52.45648 5.52431 -11 ft 31 kts 47°
2026-05-06 13:09 52.45776 5.52662 -11 ft 27 kts 47°
2026-05-06 13:09 52.45927 5.52919 -11 ft 25 kts 45°
2026-05-06 13:09 52.45901 5.53026 -11 ft 15 kts 136°
2026-05-06 13:10 52.45847 5.53038 -11 ft 3 kts 226°
2026-05-06 13:10 52.45847 5.53037 -11 ft 0 kts 226°